Time;durP1;ratioP1;P1;durP2;ratioP2;P2;SDS_P1;SDS_P2;PMS_P1;PMS_P2;Temp;Humidity;BMP_temperature;BMP_pressure;BME280_temperature;BME280_humidity;BME280_pressure;Samples;Min_cycle;Max_cycle;Signal;HPM_P1;HPM_P2
2022/11/02 00:01:00;;;;;;;;;;;13.00;99.90;;;;;;5116275;28;20468;-82
2022/11/02 00:03:27;;;;;;;10.07;2.50;;;13.20;99.90;;;;;;5116158;28;20272;-81
2022/11/02 00:05:52;;;;;;;;;;;12.90;99.90;;;;;;5116340;28;20051;-82
2022/11/02 00:08:18;;;;;;;7.18;2.10;;;13.20;99.90;;;;;;5115652;28;20014;-81
2022/11/02 00:10:44;;;;;;;8.88;3.10;;;13.10;99.90;;;;;;5114681;28;20363;-80
2022/11/02 00:13:09;;;;;;;6.07;2.00;;;12.60;99.90;;;;;;5115270;28;20086;-81
2022/11/02 00:15:36;;;;;;;6.72;1.95;;;13.00;99.90;;;;;;5115429;28;20048;-81
2022/11/02 00:18:06;;;;;;;5.13;2.00;;;12.50;99.90;;;;;;5114813;28;20100;-83
2022/11/02 00:20:34;;;;;;;7.50;1.92;;;12.40;99.90;;;;;;5115505;28;20050;-83
2022/11/02 00:23:01;;;;;;;4.80;1.90;;;12.50;99.90;;;;;;5114177;28;20036;-80
2022/11/02 00:25:28;;;;;;;7.82;1.95;;;12.40;99.90;;;;;;5115308;28;20060;-81
2022/11/02 00:27:54;;;;;;;;;;;12.40;99.90;;;;;;5115469;28;20411;-81
2022/11/02 00:30:20;;;;;;;8.48;2.67;;;12.50;99.90;;;;;;5115299;28;19920;-82
2022/11/02 00:32:45;;;;;;;11.23;2.08;;;12.30;99.90;;;;;;5115239;28;20039;-81
2022/11/02 00:35:11;;;;;;;8.77;2.42;;;12.30;99.90;;;;;;5114240;28;20054;-81
2022/11/02 00:37:37;;;;;;;9.10;2.25;;;12.40;99.90;;;;;;5114208;28;20055;-81
2022/11/02 00:40:03;;;;;;;11.57;2.60;;;12.40;99.90;;;;;;5115031;28;20046;-81
2022/11/02 00:42:29;;;;;;;8.57;2.25;;;12.40;99.90;;;;;;5114928;28;20090;-81
2022/11/02 00:44:54;;;;;;;13.30;2.55;;;12.50;99.90;;;;;;5115140;28;20075;-81
2022/11/02 00:47:20;;;;;;;6.72;2.05;;;12.30;99.90;;;;;;5115613;28;20075;-81
2022/11/02 00:49:45;;;;;;;10.70;3.47;;;12.30;99.90;;;;;;5114354;28;20043;-82
2022/11/02 00:52:11;;;;;;;9.32;2.63;;;12.30;99.90;;;;;;5114427;28;20044;-80
2022/11/02 00:54:36;;;;;;;12.75;2.35;;;12.40;99.90;;;;;;5115089;28;20074;-82
2022/11/02 00:57:02;;;;;;;13.82;2.80;;;12.40;99.90;;;;;;5114873;28;20430;-80
2022/11/02 00:59:28;;;;;;;8.43;2.85;;;12.40;99.90;;;;;;5115228;28;20086;-82
2022/11/02 01:01:53;;;;;;;12.52;2.28;;;12.40;99.90;;;;;;5114713;28;20047;-82
2022/11/02 01:04:19;;;;;;;14.07;2.83;;;12.30;99.90;;;;;;5114694;28;20392;-84
2022/11/02 01:06:45;;;;;;;10.68;2.33;;;12.30;99.90;;;;;;5114610;28;20044;-80
2022/11/02 01:09:13;;;;;;;9.90;2.33;;;12.80;99.90;;;;;;5114479;28;20557;-83
2022/11/02 01:11:39;;;;;;;14.15;2.90;;;12.10;99.90;;;;;;5114459;28;20047;-80
2022/11/02 01:14:05;;;;;;;8.77;2.60;;;12.90;99.90;;;;;;5114202;28;20487;-80
2022/11/02 01:16:31;;;;;;;10.43;2.33;;;12.40;99.90;;;;;;5114530;28;20047;-83
2022/11/02 01:18:57;;;;;;;14.40;3.28;;;12.50;99.90;;;;;;5114527;28;20040;-82
2022/11/02 01:21:23;;;;;;;8.03;2.37;;;12.50;99.90;;;;;;5114431;28;20047;-82
2022/11/02 01:23:49;;;;;;;9.20;2.30;;;12.80;99.90;;;;;;5114336;28;20044;-82
2022/11/02 01:26:14;;;;;;;12.63;2.67;;;12.60;99.90;;;;;;5114299;28;20035;-81
2022/11/02 01:28:41;;;;;;;9.48;2.63;;;12.90;99.90;;;;;;5114193;28;20105;-83
2022/11/02 01:31:07;;;;;;;14.68;2.78;;;12.90;99.90;;;;;;5114351;28;20535;-81
2022/11/02 01:33:33;;;;;;;9.52;2.40;;;12.60;99.90;;;;;;5114210;28;20131;-80
2022/11/02 01:36:05;;;;;;;9.57;2.40;;;12.70;99.90;;;;;;5112913;28;20115;-81
2022/11/02 01:38:31;;;;;;;8.85;2.72;;;12.70;99.90;;;;;;5114329;28;20036;-82
2022/11/02 01:40:57;;;;;;;10.82;2.45;;;12.80;99.90;;;;;;5114178;28;20122;-82
2022/11/02 01:43:32;;;;;;;10.30;2.58;;;12.70;99.90;;;;;;5114247;28;20123;-82
2022/11/02 01:46:00;;;;;;;15.68;3.05;;;12.70;99.90;;;;;;5114217;28;20042;-84
2022/11/02 01:48:31;;;;;;;12.48;2.53;;;12.80;99.90;;;;;;5114135;28;20040;-83
2022/11/02 01:51:01;;;;;;;14.23;2.53;;;12.80;99.90;;;;;;5114248;28;20123;-82
2022/11/02 01:53:28;;;;;;;8.57;2.95;;;12.70;99.90;;;;;;5113094;28;20043;-84
2022/11/02 01:55:55;;;;;;;12.05;2.60;;;13.00;99.90;;;;;;5113917;28;20040;-81
2022/11/02 01:58:21;;;;;;;;;;;12.70;99.90;;;;;;5114401;28;20591;-82
2022/11/02 02:00:46;;;;;;;7.57;2.53;;;13.00;99.90;;;;;;5117167;28;19923;-82
2022/11/02 02:03:17;;;;;;;9.40;2.30;;;12.80;99.90;;;;;;5116962;28;20475;-81
2022/11/02 02:05:55;;;;;;;10.98;2.42;;;12.80;99.90;;;;;;5118085;28;20031;-81
2022/11/02 02:08:23;;;;;;;9.68;2.33;;;12.80;99.90;;;;;;5118066;28;20043;-84
2022/11/02 02:10:49;;;;;;;11.48;2.47;;;12.80;99.90;;;;;;5117815;28;20039;-82
2022/11/02 02:13:16;;;;;;;10.13;2.63;;;12.80;99.90;;;;;;5117014;28;20038;-81
2022/11/02 02:16:10;;;;;;;;;;;12.80;99.90;;;;;;5117994;28;20055;-81
2022/11/02 02:18:49;;;;;;;14.82;2.67;;;12.80;99.90;;;;;;5104424;27;19919;-82
2022/11/02 02:21:24;;;;;;;11.45;2.40;;;12.70;99.90;;;;;;5117859;28;20048;-81
2022/11/02 02:24:10;;;;;;;12.20;2.50;;;12.70;99.90;;;;;;5117786;28;20050;-82
2022/11/02 02:27:17;;;;;;;11.98;2.75;;;12.70;99.90;;;;;;5117847;28;20132;-82
2022/11/02 02:30:08;;;;;;;10.70;2.55;;;12.60;99.90;;;;;;5117920;28;20467;-81
2022/11/02 02:32:43;;;;;;;8.98;2.33;;;12.70;99.90;;;;;;5110331;28;20134;-81
2022/11/02 02:35:27;;;;;;;7.88;2.28;;;12.60;99.90;;;;;;5116480;28;20126;-82
2022/11/02 02:38:00;;;;;;;5.40;2.35;;;12.60;99.90;;;;;;5117564;28;20093;-82
2022/11/02 02:40:33;;;;;;;7.57;2.35;;;12.60;99.90;;;;;;5117977;28;20462;-82
2022/11/02 02:43:11;;;;;;;5.55;1.90;;;12.60;99.90;;;;;;5118016;28;20069;-82
2022/11/02 02:45:43;;;;;;;10.20;2.13;;;12.50;99.90;;;;;;5116374;28;20047;-82
2022/11/02 02:48:29;;;;;;;7.15;2.25;;;12.40;99.90;;;;;;5116658;28;20127;-82
2022/11/02 02:51:09;;;;;;;9.95;2.67;;;12.40;99.90;;;;;;5116858;28;20083;-82
2022/11/02 02:53:40;;;;;;;10.18;2.08;;;12.30;99.90;;;;;;5117312;28;20031;-82
2022/11/02 02:56:08;;;;;;;12.40;2.45;;;12.30;99.90;;;;;;5117105;28;20040;-82
2022/11/02 02:58:57;;;;;;;9.52;2.58;;;12.30;99.90;;;;;;5115933;28;20134;-82
2022/11/02 03:01:23;;;;;;;5.43;2.05;;;12.20;99.90;;;;;;5117974;28;20074;-82
2022/11/02 03:03:49;;;;;;;9.07;2.15;;;12.20;99.90;;;;;;5118720;28;20048;-82
2022/11/02 03:06:25;;;;;;;6.15;1.85;;;12.30;99.90;;;;;;5118165;28;20042;-81
2022/11/02 03:09:28;;;;;;;7.47;2.05;;;12.20;99.90;;;;;;5118457;28;20047;-82
2022/11/02 03:12:00;;;;;;;9.27;2.35;;;12.20;99.90;;;;;;5113737;28;20488;-82
2022/11/02 03:14:37;;;;;;;4.72;1.90;;;12.10;99.90;;;;;;5118734;28;20086;-82
2022/11/02 03:17:14;;;;;;;4.35;1.60;;;12.30;99.90;;;;;;5117137;28;20449;-82
2022/11/02 03:20:02;;;;;;;3.33;1.65;;;12.10;99.90;;;;;;5115758;28;20138;-82
2022/11/02 03:22:41;;;;;;;4.57;1.75;;;12.10;99.90;;;;;;5117037;28;20044;-82
2022/11/02 03:25:18;;;;;;;5.68;1.65;;;12.30;99.90;;;;;;5115653;28;20040;-82
2022/11/02 03:28:02;;;;;;;7.90;1.77;;;11.90;99.90;;;;;;5115914;28;20393;-82
2022/11/02 03:30:32;;;;;;;4.22;1.52;;;12.00;99.90;;;;;;5116765;28;20063;-82
2022/11/02 03:33:09;;;;;;;3.33;1.80;;;11.70;99.90;;;;;;5116448;28;20153;-82
2022/11/02 03:36:01;;;;;;;2.60;1.38;;;11.70;99.90;;;;;;5116522;28;20043;-82
2022/11/02 03:38:37;;;;;;;4.32;1.60;;;11.50;99.90;;;;;;5113245;28;20063;-82
2022/11/02 03:41:03;;;;;;;4.22;1.70;;;11.40;99.90;;;;;;5116306;28;20043;-81
2022/11/02 03:43:34;;;;;;;5.93;1.45;;;11.40;99.90;;;;;;5116285;28;20079;-81
2022/11/02 03:46:01;;;;;;;8.75;1.73;;;11.30;99.90;;;;;;5098098;28;20487;-82
2022/11/02 03:48:34;;;;;;;8.93;1.80;;;11.30;99.90;;;;;;5116091;28;20062;-82
2022/11/02 03:51:03;;;;;;;4.93;1.73;;;11.20;99.90;;;;;;5116177;28;20078;-82
2022/11/02 03:53:42;;;;;;;3.85;1.63;;;11.20;99.90;;;;;;5116316;28;20055;-82
2022/11/02 03:56:13;;;;;;;4.18;1.60;;;11.20;99.90;;;;;;5115926;28;20043;-82
2022/11/02 03:58:38;;;;;;;6.18;1.73;;;11.10;99.90;;;;;;5115965;28;20044;-82
2022/11/02 04:01:09;;;;;;;5.88;1.60;;;11.10;99.90;;;;;;5115749;28;20135;-82
2022/11/02 04:03:40;;;;;;;5.05;1.88;;;11.10;99.90;;;;;;5115949;28;20048;-82
2022/11/02 04:06:06;;;;;;;9.25;1.85;;;10.90;99.90;;;;;;5116005;28;20036;-82
2022/11/02 04:08:37;;;;;;;5.72;1.77;;;11.00;99.90;;;;;;5115664;28;20380;-82
2022/11/02 04:19:26;;;;;;;5.95;2.08;;;11.10;99.90;;;;;;5052674;28;20505;-82
2022/11/02 04:19:35;;;;;;;4.00;1.77;;;11.00;99.90;;;;;;5110854;28;20108;-82
2022/11/02 04:27:32;;;;;;;5.97;2.00;;;10.90;99.90;;;;;;5115449;28;20051;-82
2022/11/02 04:29:57;;;;;;;7.25;1.90;;;10.90;99.90;;;;;;5115065;28;20059;-82
2022/11/02 04:35:08;;;;;;;4.25;1.85;;;10.90;99.90;;;;;;5115171;28;20047;-82
2022/11/02 04:40:25;;;;;;;4.68;1.98;;;10.80;99.90;;;;;;5115296;28;20051;-82
2022/11/02 04:42:51;;;;;;;5.47;1.90;;;10.80;99.90;;;;;;5113848;28;20040;-82
2022/11/02 04:45:17;;;;;;;4.55;1.77;;;10.80;99.90;;;;;;5115119;28;20292;-82
2022/11/02 04:47:42;;;;;;;7.32;1.90;;;10.80;99.90;;;;;;5114943;27;20396;-82
2022/11/02 04:50:09;;;;;;;5.28;2.22;;;10.90;99.90;;;;;;5114950;28;20044;-82
2022/11/02 04:52:34;;;;;;;5.93;2.10;;;11.50;99.90;;;;;;5114921;28;20054;-82
2022/11/02 04:55:00;;;;;;;6.70;2.75;;;11.00;99.90;;;;;;5113797;28;20040;-82
2022/11/02 04:57:25;;;;;;;11.15;2.45;;;11.00;99.90;;;;;;5114881;28;20043;-82
2022/11/02 04:59:51;;;;;;;5.10;1.85;;;11.10;99.90;;;;;;5114768;28;20055;-82
2022/11/02 05:02:16;;;;;;;6.70;1.88;;;11.20;99.90;;;;;;5115065;28;20055;-82
2022/11/02 05:04:42;;;;;;;7.68;2.15;;;11.10;99.90;;;;;;5114761;28;20471;-82
2022/11/02 05:07:10;;;;;;;8.93;1.92;;;11.10;99.90;;;;;;5113451;28;20051;-82
2022/11/02 05:09:36;;;;;;;6.72;1.98;;;11.10;99.90;;;;;;5114627;28;20050;-82
2022/11/02 05:12:03;;;;;;;7.15;2.10;;;11.10;99.90;;;;;;5114242;28;20130;-82
2022/11/02 05:14:29;;;;;;;5.47;2.10;;;11.10;99.90;;;;;;5114384;28;20079;-82
2022/11/02 05:16:56;;;;;;;3.92;1.88;;;11.00;99.90;;;;;;5114301;28;20501;-82
2022/11/02 05:19:22;;;;;;;7.93;2.15;;;11.00;99.90;;;;;;5114404;28;20047;-82
2022/11/02 05:21:47;;;;;;;5.65;1.98;;;10.90;99.90;;;;;;5114479;28;20050;-82
2022/11/02 05:24:13;;;;;;;11.80;2.53;;;11.00;99.90;;;;;;5114450;28;20379;-82
2022/11/02 05:26:38;;;;;;;6.75;2.33;;;10.90;99.90;;;;;;5114331;28;20126;-82
2022/11/02 05:29:04;;;;;;;9.00;2.42;;;11.00;99.90;;;;;;5114290;28;20052;-82
2022/11/02 05:31:30;;;;;;;10.23;2.53;;;11.00;99.90;;;;;;5113557;28;20044;-82
2022/11/02 05:33:55;;;;;;;5.25;2.30;;;11.00;99.90;;;;;;5114526;28;20090;-82
2022/11/02 05:36:21;;;;;;;6.05;2.03;;;11.10;99.90;;;;;;5114080;28;20495;-82
2022/11/02 05:38:47;;;;;;;8.68;2.53;;;11.20;99.90;;;;;;5113323;28;20447;-82
2022/11/02 05:41:12;;;;;;;10.05;2.22;;;11.20;99.90;;;;;;5114135;28;20051;-82
2022/11/02 05:43:38;;;;;;;9.27;2.67;;;11.80;99.90;;;;;;5114512;28;20051;-82
2022/11/02 05:46:03;;;;;;;7.20;2.10;;;11.20;99.90;;;;;;5114358;28;20044;-82
2022/11/02 05:48:32;;;;;;;9.18;2.10;;;11.20;99.90;;;;;;5114700;28;20479;-82
2022/11/02 05:51:00;;;;;;;15.55;2.85;;;11.60;99.90;;;;;;5114447;28;20122;-82
2022/11/02 05:53:27;;;;;;;10.32;2.53;;;11.10;99.90;;;;;;5113264;28;20047;-82
2022/11/02 05:55:57;;;;;;;11.65;2.83;;;11.00;99.90;;;;;;5113935;28;20552;-82
2022/11/02 05:58:23;;;;;;;9.65;3.05;;;11.00;99.90;;;;;;5114357;28;20040;-82
2022/11/02 06:00:49;;;;;;;8.15;2.30;;;10.90;99.90;;;;;;5114631;28;20050;-81
2022/11/02 06:03:16;;;;;;;7.40;2.72;;;10.90;99.90;;;;;;5114037;28;20480;-81
2022/11/02 06:05:41;;;;;;;10.30;3.05;;;10.80;99.90;;;;;;5114188;28;20050;-85
2022/11/02 06:08:07;;;;;;;13.07;3.42;;;10.80;99.90;;;;;;5113120;28;20134;-83
2022/11/02 06:10:33;;;;;;;10.70;2.80;;;10.80;99.90;;;;;;5113021;28;20467;-84
2022/11/02 06:13:00;;;;;;;7.72;2.65;;;10.70;99.90;;;;;;5114123;28;20035;-81
2022/11/02 06:15:26;;;;;;;9.48;2.58;;;10.80;99.90;;;;;;5112875;28;20395;-83
2022/11/02 06:17:52;;;;;;;8.48;2.30;;;10.80;99.90;;;;;;5112734;28;20046;-81
2022/11/02 06:20:18;;;;;;;10.73;2.67;;;10.80;99.90;;;;;;5112942;28;20122;-80
2022/11/02 06:22:44;;;;;;;11.77;2.70;;;10.80;99.90;;;;;;5114015;28;20081;-81
2022/11/02 06:25:11;;;;;;;10.05;2.30;;;10.90;99.90;;;;;;5112864;28;20282;-81
2022/11/02 06:27:36;;;;;;;14.55;2.65;;;10.80;99.90;;;;;;5113856;28;20488;-82
2022/11/02 06:30:03;;;;;;;9.80;2.65;;;10.90;99.90;;;;;;5113775;28;20048;-81
2022/11/02 06:32:29;;;;;;;12.43;2.80;;;10.90;99.90;;;;;;5113832;28;20495;-82
2022/11/02 06:34:54;;;;;;;11.18;2.85;;;10.80;99.90;;;;;;5113127;28;20122;-81
2022/11/02 06:37:21;;;;;;;9.68;2.50;;;10.80;99.90;;;;;;5113535;28;20044;-80
2022/11/02 06:39:47;;;;;;;;;;;11.30;99.90;;;;;;5112872;28;20044;-81
2022/11/02 06:42:12;;;;;;;10.90;2.78;;;10.90;99.90;;;;;;5113674;28;19971;-80
2022/11/02 06:44:38;;;;;;;10.30;2.45;;;11.30;99.90;;;;;;5113919;28;20488;-79
2022/11/02 06:47:04;;;;;;;9.95;2.90;;;10.80;99.90;;;;;;5115287;28;20036;-78
2022/11/02 06:49:30;;;;;;;11.95;2.72;;;10.80;99.90;;;;;;5117891;28;20047;-81
2022/11/02 06:51:55;;;;;;;14.95;3.03;;;10.70;99.90;;;;;;5117959;28;20046;-78
2022/11/02 06:54:21;;;;;;;10.45;2.50;;;10.70;99.90;;;;;;5117490;28;20046;-81
2022/11/02 06:56:46;;;;;;;5.35;2.05;;;10.70;99.90;;;;;;5117355;28;20047;-81
2022/11/02 06:59:12;;;;;;;15.23;3.17;;;10.70;99.90;;;;;;5117526;28;20043;-83
2022/11/02 07:01:38;;;;;;;11.95;2.97;;;10.60;99.90;;;;;;5116446;28;20040;-80
2022/11/02 07:04:03;;;;;;;8.27;2.50;;;10.60;99.90;;;;;;5117246;28;20039;-84
2022/11/02 07:06:29;;;;;;;12.27;2.88;;;10.60;99.90;;;;;;5117269;28;20054;-81
2022/11/02 07:08:54;;;;;;;13.43;2.83;;;10.60;99.90;;;;;;5116960;28;20043;-79
2022/11/02 07:11:20;;;;;;;11.27;2.85;;;10.60;99.90;;;;;;5117814;28;20130;-80
2022/11/02 07:13:46;;;;;;;10.18;2.60;;;10.60;99.90;;;;;;5117913;28;20055;-79
2022/11/02 07:16:13;;;;;;;13.23;3.03;;;10.60;99.90;;;;;;5117250;28;20046;-80
2022/11/02 07:18:39;;;;;;;9.52;2.58;;;10.60;99.90;;;;;;5116878;28;20047;-81
2022/11/02 07:21:05;;;;;;;9.83;2.60;;;10.60;99.90;;;;;;5116760;28;20040;-82
2022/11/02 07:23:31;;;;;;;10.60;2.97;;;10.50;99.90;;;;;;5116740;28;20277;-81
2022/11/02 07:25:56;;;;;;;8.57;2.97;;;10.50;99.90;;;;;;5115956;28;20495;-81
2022/11/02 07:28:22;;;;;;;10.63;2.33;;;10.50;99.90;;;;;;5116698;28;20052;-81
2022/11/02 07:30:48;;;;;;;15.50;3.00;;;10.60;99.90;;;;;;5115330;28;20127;-82
2022/11/02 07:33:13;;;;;;;11.20;2.58;;;10.70;99.90;;;;;;5114111;28;20044;-82
2022/11/02 07:35:40;;;;;;;10.15;2.88;;;10.80;99.90;;;;;;5115022;28;20465;-82
2022/11/02 07:38:06;;;;;;;13.10;2.87;;;10.90;99.90;;;;;;5115912;28;20122;-81
2022/11/02 07:40:35;;;;;;;16.30;3.00;;;11.00;99.90;;;;;;5115565;28;20284;-82
2022/11/02 07:43:01;;;;;;;9.52;2.60;;;11.10;99.90;;;;;;5116542;28;20055;-81
2022/11/02 07:45:28;;;;;;;10.60;2.50;;;11.60;99.90;;;;;;5116620;28;20065;-81
2022/11/02 07:47:53;;;;;;;;;;;11.30;99.90;;;;;;5116757;28;20277;-81
2022/11/02 07:50:21;;;;;;;8.35;2.70;;;11.50;99.90;;;;;;5116183;28;19920;-82
2022/11/02 07:52:53;;;;;;;20.33;3.47;;;11.40;99.90;;;;;;5116034;28;20483;-82
2022/11/02 07:55:21;;;;;;;14.38;2.92;;;11.50;99.90;;;;;;5115970;28;20043;-81
2022/11/02 07:57:53;;;;;;;13.20;2.33;;;11.50;99.90;;;;;;5115753;28;20079;-81
2022/11/02 08:00:19;;;;;;;11.95;2.75;;;12.00;99.90;;;;;;5115900;28;20120;-81
2022/11/02 08:02:45;;;;;;;16.08;2.58;;;11.60;99.90;;;;;;5116143;27;20047;-81
2022/11/02 08:05:10;;;;;;;14.35;2.40;;;11.70;99.90;;;;;;5115856;28;20039;-81
2022/11/02 08:07:36;;;;;;;6.65;2.13;;;11.90;99.90;;;;;;5115848;28;20086;-80
2022/11/02 08:10:01;;;;;;;8.35;2.17;;;11.70;99.90;;;;;;5114561;28;20505;-82
2022/11/02 08:12:27;;;;;;;9.30;2.45;;;11.70;99.90;;;;;;5116080;28;20126;-81
2022/11/02 08:14:52;;;;;;;10.02;2.60;;;11.80;99.90;;;;;;5115712;28;20050;-82
2022/11/02 08:17:18;;;;;;;8.23;2.58;;;11.70;99.90;;;;;;5114608;28;20040;-81
2022/11/02 08:19:44;;;;;;;8.45;2.65;;;11.80;99.90;;;;;;5114839;28;20039;-82
2022/11/02 08:22:09;;;;;;;5.32;2.00;;;11.80;99.90;;;;;;5115672;28;20118;-82
2022/11/02 08:24:35;;;;;;;9.60;2.28;;;11.90;99.90;;;;;;5115057;28;20050;-82
2022/11/02 08:27:00;;;;;;;4.57;2.42;;;11.90;99.90;;;;;;5115508;28;20205;-82
2022/11/02 08:29:26;;;;;;;10.60;2.08;;;11.90;99.90;;;;;;5115673;28;20062;-82
2022/11/02 08:31:51;;;;;;;11.95;2.35;;;12.00;99.90;;;;;;5115454;28;20130;-81
2022/11/02 08:34:17;;;;;;;12.15;2.63;;;12.10;99.90;;;;;;5114355;28;20483;-80
2022/11/02 08:36:43;;;;;;;8.20;2.13;;;12.10;99.90;;;;;;5115089;28;20509;-83
2022/11/02 08:39:08;;;;;;;7.60;1.98;;;12.30;99.90;;;;;;5115105;28;20108;-80
2022/11/02 08:41:34;;;;;;;10.30;2.25;;;12.20;99.90;;;;;;5113924;28;20090;-82
2022/11/02 08:43:59;;;;;;;11.55;2.47;;;12.30;99.90;;;;;;5115408;28;20039;-82
2022/11/02 08:46:25;;;;;;;6.25;1.95;;;12.30;99.90;;;;;;5115039;28;20035;-80
2022/11/02 08:48:50;;;;;;;6.63;1.90;;;12.70;99.90;;;;;;5115092;27;20039;-79
2022/11/02 08:51:16;;;;;;;8.07;2.00;;;12.20;99.90;;;;;;5115028;28;20043;-82
2022/11/02 08:53:42;;;;;;;7.88;1.77;;;12.10;99.90;;;;;;5113921;28;20039;-79
2022/11/02 08:56:07;;;;;;;10.52;1.80;;;12.10;99.90;;;;;;5114908;28;20480;-80
2022/11/02 08:58:33;;;;;;;8.27;1.90;;;12.10;99.90;;;;;;5115021;28;20039;-80
2022/11/02 09:00:58;;;;;;;6.75;2.00;;;12.10;99.90;;;;;;5114537;28;20421;-80
2022/11/02 09:03:24;;;;;;;6.80;1.92;;;12.10;99.90;;;;;;5115060;28;20391;-81
2022/11/02 09:05:56;;;;;;;5.93;2.10;;;12.20;99.90;;;;;;5114289;28;20481;-81
2022/11/02 09:08:21;;;;;;;12.05;3.08;;;12.20;99.90;;;;;;5115081;28;20051;-81
2022/11/02 09:10:50;;;;;;;8.00;2.40;;;12.10;99.90;;;;;;5114291;28;20395;-83
2022/11/02 09:13:19;;;;;;;9.40;1.98;;;12.50;99.90;;;;;;5114770;28;20428;-81
2022/11/02 09:15:48;;;;;;;9.15;2.28;;;12.20;99.90;;;;;;5114714;28;20051;-81
2022/11/02 09:18:14;;;;;;;6.00;1.98;;;12.30;99.90;;;;;;5114988;28;20087;-81
2022/11/02 09:20:40;;;;;;;6.43;1.80;;;12.40;99.90;;;;;;5113516;28;20086;-81
2022/11/02 09:23:05;;;;;;;9.25;1.92;;;12.90;99.90;;;;;;5115060;28;20050;-82
2022/11/02 09:25:31;;;;;;;8.80;2.53;;;12.50;99.90;;;;;;5114600;28;20498;-81
2022/11/02 09:27:57;;;;;;;11.05;2.05;;;12.60;99.90;;;;;;5114159;28;20063;-81
2022/11/02 09:30:24;;;;;;;12.00;2.03;;;12.60;99.90;;;;;;5114446;28;20047;-84
2022/11/02 09:33:02;;;;;;;10.50;2.05;;;12.60;99.90;;;;;;5113270;28;20470;-82
2022/11/02 09:35:35;;;;;;;8.32;1.77;;;12.60;99.90;;;;;;5114084;28;20035;-82
2022/11/02 09:38:01;;;;;;;5.43;2.03;;;12.60;99.90;;;;;;5113541;28;20422;-82
2022/11/02 09:41:10;;;;;;;8.35;2.15;;;12.70;99.90;;;;;;5114625;28;20051;-83
2022/11/02 09:43:48;;;;;;;9.90;1.75;;;12.70;99.90;;;;;;5114110;28;20088;-80
2022/11/02 09:46:19;;;;;;;6.35;2.35;;;12.80;99.90;;;;;;5114781;28;20433;-79
2022/11/02 09:49:02;;;;;;;11.65;1.77;;;12.80;99.90;;;;;;5114549;28;20050;-78
2022/11/02 09:51:31;;;;;;;7.32;1.60;;;12.90;99.90;;;;;;5114323;28;20054;-79
2022/11/02 09:54:28;;;;;;;10.30;2.55;;;12.90;99.90;;;;;;5114068;28;20044;-79
2022/11/02 09:57:03;;;;;;;8.13;1.70;;;12.70;99.90;;;;;;5113926;28;20495;-79
2022/11/02 09:59:29;;;;;;;9.02;1.83;;;13.20;99.90;;;;;;5114597;28;20051;-78
2022/11/02 10:02:21;;;;;;;5.25;2.03;;;13.40;99.90;;;;;;5113213;28;20479;-80
2022/11/02 10:05:13;;;;;;;6.93;1.60;;;13.50;99.90;;;;;;5114083;28;20047;-79
2022/11/02 10:08:08;;;;;;;7.70;1.70;;;13.60;99.90;;;;;;5113479;28;20522;-77
2022/11/02 10:10:56;;;;;;;9.60;1.83;;;13.60;99.90;;;;;;5114210;28;20039;-83
2022/11/02 10:13:43;;;;;;;10.95;2.10;;;13.60;99.90;;;;;;5113797;28;20130;-76
2022/11/02 10:16:26;;;;;;;7.80;1.90;;;13.60;99.90;;;;;;5114165;28;20372;-73
2022/11/02 10:18:53;;;;;;;5.95;1.65;;;13.50;99.90;;;;;;5113875;28;20040;-73
2022/11/02 10:21:20;;;;;;;;;;;13.50;99.90;;;;;;5116210;28;20044;-73
2022/11/02 10:23:53;;;;;;;6.87;1.90;;;13.40;99.90;;;;;;5117941;28;19950;-81
2022/11/02 10:26:23;;;;;;;8.98;2.15;;;13.40;99.90;;;;;;5118124;28;20084;-79
2022/11/02 10:29:19;;;;;;;5.47;1.80;;;13.40;99.90;;;;;;5117802;28;20076;-79
2022/11/02 10:31:47;;;;;;;5.65;1.63;;;13.50;99.90;;;;;;5093123;28;20059;-79
2022/11/02 10:34:24;;;;;;;5.22;1.40;;;13.70;99.90;;;;;;5118077;28;20073;-78
2022/11/02 10:36:53;;;;;;;;;;;13.80;99.90;;;;;;5118102;28;20047;-78
2022/11/02 10:39:31;;;;;;;8.45;1.60;;;13.90;99.90;;;;;;5117562;28;20276;-80
2022/11/02 10:42:25;;;;;;;9.43;1.70;;;14.00;99.90;;;;;;5117548;28;20051;-78
2022/11/02 10:45:15;;;;;;;12.38;2.97;;;14.00;99.90;;;;;;5117137;28;20062;-79
2022/11/02 10:48:11;;;;;;;8.65;1.95;;;14.10;99.90;;;;;;5117330;28;20047;-80
2022/11/02 10:50:46;;;;;;;5.82;1.90;;;14.20;99.90;;;;;;5117268;28;20048;-79
2022/11/02 10:53:18;;;;;;;10.77;2.22;;;14.10;99.90;;;;;;5117734;28;20504;-79
2022/11/02 10:56:02;;;;;;;8.40;2.13;;;14.00;99.90;;;;;;5117035;27;20501;-78
2022/11/02 10:58:32;;;;;;;14.02;2.40;;;14.00;99.90;;;;;;5117166;28;20043;-77
2022/11/02 11:01:09;;;;;;;8.38;2.30;;;14.00;99.90;;;;;;5117191;28;20043;-77
2022/11/02 11:04:02;;;;;;;10.40;2.10;;;14.10;99.90;;;;;;5117652;28;20105;-79
2022/11/02 11:06:39;;;;;;;5.97;2.03;;;14.20;99.90;;;;;;5117318;28;20044;-83
2022/11/02 11:09:25;;;;;;;9.32;2.00;;;14.30;99.90;;;;;;5116975;28;20140;-77
2022/11/02 11:12:24;;;;;;;10.43;2.03;;;14.30;99.90;;;;;;5116646;28;20473;-80
2022/11/02 11:14:51;;;;;;;10.48;2.00;;;14.30;99.90;;;;;;5116935;28;20044;-79
2022/11/02 11:17:25;;;;;;;;;;;14.40;99.90;;;;;;5117333;28;20036;-82
2022/11/02 11:19:53;;;;;;;6.32;1.50;;;14.60;99.90;;;;;;5116605;28;19931;-81
2022/11/02 11:22:29;;;;;;;10.02;1.77;;;14.60;99.90;;;;;;5116690;28;20173;-79
2022/11/02 11:25:18;;;;;;;7.47;1.67;;;14.70;99.90;;;;;;5117114;28;20031;-77
2022/11/02 11:27:55;;;;;;;4.50;1.60;;;14.80;99.90;;;;;;5123908;28;20054;-79
2022/11/02 11:30:30;;;;;;;8.25;2.20;;;14.90;99.90;;;;;;5116386;28;20047;-81
2022/11/02 11:32:58;;;;;;;11.48;1.90;;;14.80;99.90;;;;;;5116061;28;20514;-78
2022/11/02 11:35:32;;;;;;;6.28;1.88;;;14.80;99.90;;;;;;5116338;28;20428;-77
2022/11/02 11:38:01;;;;;;;10.82;2.08;;;14.70;99.90;;;;;;5116629;28;20048;-79
2022/11/02 11:40:33;;;;;;;8.43;2.20;;;14.90;99.90;;;;;;5116327;28;20047;-78
2022/11/02 11:43:02;;;;;;;12.13;2.05;;;14.40;99.90;;;;;;5116011;28;20491;-77
2022/11/02 11:45:31;;;;;;;7.57;1.88;;;14.30;99.90;;;;;;5116269;28;20043;-78
2022/11/02 11:48:26;;;;;;;9.07;2.00;;;14.40;99.90;;;;;;5116194;28;20058;-82
2022/11/02 11:50:52;;;;;;;8.27;1.92;;;14.40;99.90;;;;;;5105021;28;20058;-80
2022/11/02 11:53:23;;;;;;;12.60;2.00;;;14.40;99.90;;;;;;5116179;28;20044;-81
2022/11/02 11:55:51;;;;;;;8.88;2.10;;;14.40;99.90;;;;;;5116434;28;20399;-82
2022/11/02 11:58:29;;;;;;;10.32;1.83;;;14.40;99.90;;;;;;5116122;28;20047;-81
2022/11/02 12:01:03;;;;;;;;;;;14.30;99.90;;;;;;5116461;28;20054;-81
2022/11/02 12:03:29;;;;;;;8.90;1.83;;;14.30;99.90;;;;;;5115969;28;19919;-81
2022/11/02 12:06:06;;;;;;;8.23;2.03;;;14.20;99.90;;;;;;5114913;28;20043;-81
2022/11/02 12:08:59;;;;;;;6.82;1.77;;;14.00;99.90;;;;;;5116399;28;20066;-81
2022/11/02 12:11:41;;;;;;;9.52;1.70;;;13.90;99.90;;;;;;5116146;28;20116;-80
2022/11/02 12:14:21;;;;;;;8.95;1.90;;;13.90;99.90;;;;;;5115568;27;20054;-81
2022/11/02 12:17:07;;;;;;;4.50;1.60;;;13.90;99.90;;;;;;5115721;28;20506;-81
2022/11/02 12:20:09;;;;;;;5.45;1.70;;;13.80;99.90;;;;;;5114917;28;20380;-81
2022/11/02 12:22:54;;;;;;;11.10;3.00;;;13.80;99.90;;;;;;5115552;28;20047;-81
2022/11/02 12:25:32;;;;;;;6.18;1.58;;;13.70;99.90;;;;;;5115536;28;20039;-81
2022/11/02 12:28:39;;;;;;;7.32;1.90;;;13.70;99.90;;;;;;5118986;27;20120;-80
2022/11/02 12:31:21;;;;;;;8.60;1.92;;;13.90;99.90;;;;;;5052549;28;20060;-81
2022/11/02 12:33:58;;;;;;;9.43;2.03;;;14.10;99.90;;;;;;5131714;27;20047;-81
2022/11/02 12:36:43;;;;;;;9.80;1.80;;;14.30;99.90;;;;;;5135969;27;20039;-81
2022/11/02 12:39:47;;;;;;;7.97;2.08;;;14.30;99.90;;;;;;5135789;27;20126;-80
2022/11/02 12:42:29;;;;;;;7.10;2.30;;;14.30;99.90;;;;;;5104495;27;20059;-80
2022/11/02 12:45:26;;;;;;;8.80;1.77;;;14.20;99.90;;;;;;5134628;27;20047;-80
2022/11/02 12:48:00;;;;;;;28.88;2.75;;;14.20;99.90;;;;;;5121280;27;20443;-81
2022/11/02 12:51:10;;;;;;;7.00;1.73;;;14.10;99.90;;;;;;5134403;27;20051;-81
2022/11/02 12:53:59;;;;;;;8.75;1.70;;;14.00;99.90;;;;;;5052360;28;20048;-80
2022/11/02 12:56:54;;;;;;;47.42;8.98;;;13.90;99.90;;;;;;5132180;27;20051;-81
2022/11/02 12:59:33;;;;;;;29.25;3.20;;;14.00;99.90;;;;;;5118486;27;20410;-82
2022/11/02 13:02:08;;;;;;;8.32;1.95;;;13.90;99.90;;;;;;5117882;27;20035;-82
2022/11/02 13:04:57;;;;;;;8.90;2.35;;;13.80;99.90;;;;;;5135297;27;20043;-81
2022/11/02 13:07:42;;;;;;;4.07;1.50;;;13.70;99.90;;;;;;5135596;27;20058;-82
2022/11/02 13:10:19;;;;;;;12.65;2.83;;;13.70;99.90;;;;;;5135209;27;20039;-80
2022/11/02 13:12:48;;;;;;;100.53;13.40;;;13.90;99.90;;;;;;5135076;27;20131;-80
2022/11/02 13:15:17;;;;;;;6.18;1.42;;;14.10;99.90;;;;;;5135102;27;20039;-81
2022/11/02 13:17:51;;;;;;;6.35;1.75;;;14.10;99.90;;;;;;5134795;27;20478;-82
2022/11/02 13:20:27;;;;;;;8.60;1.42;;;14.60;99.90;;;;;;5135404;27;20092;-80
2022/11/02 13:23:04;;;;;;;8.35;1.77;;;14.20;99.90;;;;;;5135165;27;20039;-80
2022/11/02 13:25:43;;;;;;;8.23;1.88;;;14.30;99.90;;;;;;5134976;27;20114;-82